sensor_id;sensor_type;location;lat;lon;timestamp;P1;durP1;ratioP1;P2;durP2;ratioP2
23714;SDS011;12036;50.858;4.472;2023-12-20T00:00:07;12.63;;;2.08;;
23714;SDS011;12036;50.858;4.472;2023-12-20T00:02:33;10.55;;;1.73;;
23714;SDS011;12036;50.858;4.472;2023-12-20T00:05:00;18.75;;;2.10;;
23714;SDS011;12036;50.858;4.472;2023-12-20T00:07:25;10.90;;;1.83;;
23714;SDS011;12036;50.858;4.472;2023-12-20T00:09:51;10.48;;;1.95;;
23714;SDS011;12036;50.858;4.472;2023-12-20T00:12:16;8.02;;;1.67;;
23714;SDS011;12036;50.858;4.472;2023-12-20T00:14:42;13.60;;;1.77;;
23714;SDS011;12036;50.858;4.472;2023-12-20T00:17:08;14.50;;;1.80;;
23714;SDS011;12036;50.858;4.472;2023-12-20T00:19:33;9.13;;;1.60;;
23714;SDS011;12036;50.858;4.472;2023-12-20T00:21:59;15.27;;;1.83;;
23714;SDS011;12036;50.858;4.472;2023-12-20T00:24:24;15.95;;;2.08;;
23714;SDS011;12036;50.858;4.472;2023-12-20T00:26:50;13.55;;;1.70;;
23714;SDS011;12036;50.858;4.472;2023-12-20T00:29:16;11.77;;;1.67;;
23714;SDS011;12036;50.858;4.472;2023-12-20T00:31:41;8.75;;;1.67;;
23714;SDS011;12036;50.858;4.472;2023-12-20T00:34:07;15.07;;;1.92;;
23714;SDS011;12036;50.858;4.472;2023-12-20T00:36:32;18.02;;;2.03;;
23714;SDS011;12036;50.858;4.472;2023-12-20T00:38:58;11.35;;;1.67;;
23714;SDS011;12036;50.858;4.472;2023-12-20T00:41:24;10.85;;;1.80;;
23714;SDS011;12036;50.858;4.472;2023-12-20T00:43:50;13.82;;;1.85;;
23714;SDS011;12036;50.858;4.472;2023-12-20T00:46:15;12.30;;;1.77;;
23714;SDS011;12036;50.858;4.472;2023-12-20T00:48:41;8.45;;;1.55;;
23714;SDS011;12036;50.858;4.472;2023-12-20T00:51:07;11.77;;;1.45;;
23714;SDS011;12036;50.858;4.472;2023-12-20T00:53:33;12.70;;;1.80;;
23714;SDS011;12036;50.858;4.472;2023-12-20T00:55:59;8.93;;;1.52;;
23714;SDS011;12036;50.858;4.472;2023-12-20T00:58:24;12.57;;;1.90;;
23714;SDS011;12036;50.858;4.472;2023-12-20T01:00:50;8.90;;;2.33;;
23714;SDS011;12036;50.858;4.472;2023-12-20T01:03:16;13.55;;;1.67;;
23714;SDS011;12036;50.858;4.472;2023-12-20T01:05:41;22.48;;;2.15;;
23714;SDS011;12036;50.858;4.472;2023-12-20T01:08:07;14.82;;;2.03;;
23714;SDS011;12036;50.858;4.472;2023-12-20T01:10:33;13.65;;;2.30;;
23714;SDS011;12036;50.858;4.472;2023-12-20T01:12:58;15.15;;;2.03;;
23714;SDS011;12036;50.858;4.472;2023-12-20T01:15:24;13.57;;;2.10;;
23714;SDS011;12036;50.858;4.472;2023-12-20T01:17:49;8.70;;;2.17;;
23714;SDS011;12036;50.858;4.472;2023-12-20T01:20:16;13.30;;;2.60;;
23714;SDS011;12036;50.858;4.472;2023-12-20T01:22:42;9.48;;;2.13;;
23714;SDS011;12036;50.858;4.472;2023-12-20T01:25:08;16.50;;;2.30;;
23714;SDS011;12036;50.858;4.472;2023-12-20T01:27:33;17.42;;;2.63;;
23714;SDS011;12036;50.858;4.472;2023-12-20T01:29:59;20.05;;;2.58;;
23714;SDS011;12036;50.858;4.472;2023-12-20T01:32:25;14.30;;;2.10;;
23714;SDS011;12036;50.858;4.472;2023-12-20T01:34:50;7.70;;;2.67;;
23714;SDS011;12036;50.858;4.472;2023-12-20T01:37:16;16.92;;;2.92;;
23714;SDS011;12036;50.858;4.472;2023-12-20T01:39:41;12.55;;;2.55;;
23714;SDS011;12036;50.858;4.472;2023-12-20T01:42:07;9.25;;;2.88;;
23714;SDS011;12036;50.858;4.472;2023-12-20T01:44:33;9.73;;;2.50;;
23714;SDS011;12036;50.858;4.472;2023-12-20T01:46:58;11.70;;;2.60;;
23714;SDS011;12036;50.858;4.472;2023-12-20T01:49:25;11.70;;;2.47;;
23714;SDS011;12036;50.858;4.472;2023-12-20T01:51:51;13.02;;;3.17;;
23714;SDS011;12036;50.858;4.472;2023-12-20T01:54:17;17.35;;;2.83;;
23714;SDS011;12036;50.858;4.472;2023-12-20T01:56:44;14.35;;;2.72;;
23714;SDS011;12036;50.858;4.472;2023-12-20T01:59:10;14.40;;;2.63;;
23714;SDS011;12036;50.858;4.472;2023-12-20T02:01:36;13.02;;;2.38;;
23714;SDS011;12036;50.858;4.472;2023-12-20T02:04:02;13.23;;;2.47;;
23714;SDS011;12036;50.858;4.472;2023-12-20T02:06:29;9.15;;;2.28;;
23714;SDS011;12036;50.858;4.472;2023-12-20T02:08:58;27.90;;;2.95;;
23714;SDS011;12036;50.858;4.472;2023-12-20T02:11:25;14.77;;;2.60;;
23714;SDS011;12036;50.858;4.472;2023-12-20T02:13:51;17.00;;;2.83;;
23714;SDS011;12036;50.858;4.472;2023-12-20T02:16:17;14.52;;;2.33;;
23714;SDS011;12036;50.858;4.472;2023-12-20T02:18:43;12.90;;;2.33;;
23714;SDS011;12036;50.858;4.472;2023-12-20T02:21:09;12.38;;;2.15;;
23714;SDS011;12036;50.858;4.472;2023-12-20T02:23:35;17.95;;;2.60;;
23714;SDS011;12036;50.858;4.472;2023-12-20T02:26:01;12.70;;;2.42;;
23714;SDS011;12036;50.858;4.472;2023-12-20T02:28:27;19.73;;;2.75;;
23714;SDS011;12036;50.858;4.472;2023-12-20T02:30:53;17.83;;;2.63;;
23714;SDS011;12036;50.858;4.472;2023-12-20T02:33:19;14.57;;;2.72;;
23714;SDS011;12036;50.858;4.472;2023-12-20T02:35:44;9.32;;;2.15;;
23714;SDS011;12036;50.858;4.472;2023-12-20T02:38:10;21.77;;;2.80;;
23714;SDS011;12036;50.858;4.472;2023-12-20T02:40:36;14.38;;;2.45;;
23714;SDS011;12036;50.858;4.472;2023-12-20T02:43:01;10.48;;;2.20;;
23714;SDS011;12036;50.858;4.472;2023-12-20T02:45:27;16.42;;;2.70;;
23714;SDS011;12036;50.858;4.472;2023-12-20T02:47:53;18.17;;;2.60;;
23714;SDS011;12036;50.858;4.472;2023-12-20T02:50:18;10.93;;;2.42;;
23714;SDS011;12036;50.858;4.472;2023-12-20T02:52:44;14.23;;;2.90;;
23714;SDS011;12036;50.858;4.472;2023-12-20T02:55:11;22.50;;;2.78;;
23714;SDS011;12036;50.858;4.472;2023-12-20T02:57:36;8.73;;;2.30;;
23714;SDS011;12036;50.858;4.472;2023-12-20T03:00:06;17.02;;;2.47;;
23714;SDS011;12036;50.858;4.472;2023-12-20T03:02:36;11.43;;;2.70;;
23714;SDS011;12036;50.858;4.472;2023-12-20T03:05:02;16.17;;;2.42;;
23714;SDS011;12036;50.858;4.472;2023-12-20T03:07:28;10.18;;;2.38;;
23714;SDS011;12036;50.858;4.472;2023-12-20T03:09:54;12.43;;;3.08;;
23714;SDS011;12036;50.858;4.472;2023-12-20T03:12:19;18.25;;;3.08;;
23714;SDS011;12036;50.858;4.472;2023-12-20T03:14:45;14.35;;;3.03;;
23714;SDS011;12036;50.858;4.472;2023-12-20T03:17:10;16.17;;;2.97;;
23714;SDS011;12036;50.858;4.472;2023-12-20T03:19:36;10.75;;;3.45;;
23714;SDS011;12036;50.858;4.472;2023-12-20T03:22:02;14.15;;;3.22;;
23714;SDS011;12036;50.858;4.472;2023-12-20T03:24:27;11.55;;;3.38;;
23714;SDS011;12036;50.858;4.472;2023-12-20T03:26:53;15.13;;;3.38;;
23714;SDS011;12036;50.858;4.472;2023-12-20T03:29:20;15.43;;;3.22;;
23714;SDS011;12036;50.858;4.472;2023-12-20T03:31:45;11.85;;;3.40;;
23714;SDS011;12036;50.858;4.472;2023-12-20T03:34:11;14.32;;;2.67;;
23714;SDS011;12036;50.858;4.472;2023-12-20T03:36:37;14.75;;;3.20;;
23714;SDS011;12036;50.858;4.472;2023-12-20T03:39:02;12.30;;;3.55;;
23714;SDS011;12036;50.858;4.472;2023-12-20T03:41:28;13.60;;;3.50;;
23714;SDS011;12036;50.858;4.472;2023-12-20T03:43:54;15.55;;;3.22;;
23714;SDS011;12036;50.858;4.472;2023-12-20T03:46:19;25.35;;;3.30;;
23714;SDS011;12036;50.858;4.472;2023-12-20T03:48:45;15.90;;;3.40;;
23714;SDS011;12036;50.858;4.472;2023-12-20T03:51:11;18.65;;;3.80;;
23714;SDS011;12036;50.858;4.472;2023-12-20T03:53:37;14.38;;;3.13;;
23714;SDS011;12036;50.858;4.472;2023-12-20T03:56:02;19.90;;;3.10;;
23714;SDS011;12036;50.858;4.472;2023-12-20T03:58:28;14.98;;;3.30;;
23714;SDS011;12036;50.858;4.472;2023-12-20T04:00:54;16.33;;;3.05;;
23714;SDS011;12036;50.858;4.472;2023-12-20T04:03:20;23.50;;;4.07;;
23714;SDS011;12036;50.858;4.472;2023-12-20T04:05:45;17.60;;;3.40;;
23714;SDS011;12036;50.858;4.472;2023-12-20T04:08:11;19.98;;;3.25;;
23714;SDS011;12036;50.858;4.472;2023-12-20T04:10:36;20.00;;;3.47;;
23714;SDS011;12036;50.858;4.472;2023-12-20T04:13:02;20.58;;;3.17;;
23714;SDS011;12036;50.858;4.472;2023-12-20T04:15:28;14.57;;;3.55;;
23714;SDS011;12036;50.858;4.472;2023-12-20T04:17:54;22.05;;;3.38;;
23714;SDS011;12036;50.858;4.472;2023-12-20T04:20:20;15.80;;;3.17;;
23714;SDS011;12036;50.858;4.472;2023-12-20T04:22:45;12.88;;;3.53;;
23714;SDS011;12036;50.858;4.472;2023-12-20T04:25:11;21.42;;;3.97;;
23714;SDS011;12036;50.858;4.472;2023-12-20T04:27:36;14.80;;;3.13;;
23714;SDS011;12036;50.858;4.472;2023-12-20T04:30:02;9.45;;;2.70;;
23714;SDS011;12036;50.858;4.472;2023-12-20T04:32:28;17.75;;;3.28;;
23714;SDS011;12036;50.858;4.472;2023-12-20T04:34:54;12.18;;;3.20;;
23714;SDS011;12036;50.858;4.472;2023-12-20T04:37:20;23.50;;;3.42;;
23714;SDS011;12036;50.858;4.472;2023-12-20T04:39:45;21.05;;;3.15;;
23714;SDS011;12036;50.858;4.472;2023-12-20T04:42:11;12.98;;;2.80;;
23714;SDS011;12036;50.858;4.472;2023-12-20T04:44:36;16.58;;;3.13;;
23714;SDS011;12036;50.858;4.472;2023-12-20T04:47:02;15.35;;;3.33;;
23714;SDS011;12036;50.858;4.472;2023-12-20T04:49:28;14.18;;;3.17;;
23714;SDS011;12036;50.858;4.472;2023-12-20T04:51:54;16.33;;;2.70;;
23714;SDS011;12036;50.858;4.472;2023-12-20T04:54:20;12.98;;;2.65;;
23714;SDS011;12036;50.858;4.472;2023-12-20T04:56:46;21.15;;;3.13;;
23714;SDS011;12036;50.858;4.472;2023-12-20T04:59:12;13.95;;;2.88;;
23714;SDS011;12036;50.858;4.472;2023-12-20T05:01:38;18.48;;;3.17;;
23714;SDS011;12036;50.858;4.472;2023-12-20T05:04:04;12.30;;;2.92;;
23714;SDS011;12036;50.858;4.472;2023-12-20T05:06:29;15.20;;;3.03;;
23714;SDS011;12036;50.858;4.472;2023-12-20T05:08:55;12.55;;;2.72;;
23714;SDS011;12036;50.858;4.472;2023-12-20T05:11:21;18.75;;;3.60;;
23714;SDS011;12036;50.858;4.472;2023-12-20T05:13:46;18.15;;;3.38;;
23714;SDS011;12036;50.858;4.472;2023-12-20T05:16:12;25.58;;;3.38;;
23714;SDS011;12036;50.858;4.472;2023-12-20T05:18:39;17.08;;;3.45;;
23714;SDS011;12036;50.858;4.472;2023-12-20T05:21:05;11.65;;;2.90;;
23714;SDS011;12036;50.858;4.472;2023-12-20T05:23:31;15.07;;;3.50;;
23714;SDS011;12036;50.858;4.472;2023-12-20T05:25:56;21.05;;;3.00;;
23714;SDS011;12036;50.858;4.472;2023-12-20T05:28:22;17.95;;;2.90;;
23714;SDS011;12036;50.858;4.472;2023-12-20T05:30:47;14.50;;;2.85;;
23714;SDS011;12036;50.858;4.472;2023-12-20T05:33:13;21.83;;;3.15;;
23714;SDS011;12036;50.858;4.472;2023-12-20T05:35:39;13.65;;;2.70;;
23714;SDS011;12036;50.858;4.472;2023-12-20T05:38:04;12.23;;;2.60;;
23714;SDS011;12036;50.858;4.472;2023-12-20T05:40:30;12.27;;;2.70;;
23714;SDS011;12036;50.858;4.472;2023-12-20T05:42:56;17.13;;;2.90;;
23714;SDS011;12036;50.858;4.472;2023-12-20T05:45:21;14.68;;;2.65;;
23714;SDS011;12036;50.858;4.472;2023-12-20T05:47:47;11.32;;;3.05;;
23714;SDS011;12036;50.858;4.472;2023-12-20T05:50:12;11.95;;;2.65;;
23714;SDS011;12036;50.858;4.472;2023-12-20T05:52:38;13.02;;;3.22;;
23714;SDS011;12036;50.858;4.472;2023-12-20T05:55:04;18.83;;;3.50;;
23714;SDS011;12036;50.858;4.472;2023-12-20T05:57:29;14.90;;;3.10;;
23714;SDS011;12036;50.858;4.472;2023-12-20T05:59:55;19.08;;;3.70;;
23714;SDS011;12036;50.858;4.472;2023-12-20T06:02:21;14.20;;;3.72;;
23714;SDS011;12036;50.858;4.472;2023-12-20T06:04:46;18.45;;;3.50;;
23714;SDS011;12036;50.858;4.472;2023-12-20T06:07:12;10.30;;;3.15;;
23714;SDS011;12036;50.858;4.472;2023-12-20T06:09:38;10.90;;;3.15;;
23714;SDS011;12036;50.858;4.472;2023-12-20T06:12:03;11.48;;;2.78;;
23714;SDS011;12036;50.858;4.472;2023-12-20T06:14:29;15.88;;;2.97;;
23714;SDS011;12036;50.858;4.472;2023-12-20T06:16:58;11.63;;;2.80;;
23714;SDS011;12036;50.858;4.472;2023-12-20T06:19:23;15.05;;;3.78;;
23714;SDS011;12036;50.858;4.472;2023-12-20T06:21:49;13.73;;;2.92;;
23714;SDS011;12036;50.858;4.472;2023-12-20T06:24:15;11.52;;;2.78;;
23714;SDS011;12036;50.858;4.472;2023-12-20T06:26:40;17.92;;;2.75;;
23714;SDS011;12036;50.858;4.472;2023-12-20T06:29:06;12.73;;;2.45;;
23714;SDS011;12036;50.858;4.472;2023-12-20T06:31:32;18.30;;;3.63;;
23714;SDS011;12036;50.858;4.472;2023-12-20T06:33:58;14.65;;;3.03;;
23714;SDS011;12036;50.858;4.472;2023-12-20T06:36:25;9.68;;;2.25;;
23714;SDS011;12036;50.858;4.472;2023-12-20T06:38:51;17.95;;;3.30;;
23714;SDS011;12036;50.858;4.472;2023-12-20T06:41:17;15.75;;;2.40;;
23714;SDS011;12036;50.858;4.472;2023-12-20T06:43:42;11.50;;;2.28;;
23714;SDS011;12036;50.858;4.472;2023-12-20T06:46:08;14.90;;;2.50;;
23714;SDS011;12036;50.858;4.472;2023-12-20T06:48:34;13.48;;;3.08;;
23714;SDS011;12036;50.858;4.472;2023-12-20T06:51:00;10.82;;;2.85;;
23714;SDS011;12036;50.858;4.472;2023-12-20T06:53:29;14.55;;;2.15;;
23714;SDS011;12036;50.858;4.472;2023-12-20T06:55:54;13.52;;;2.42;;
23714;SDS011;12036;50.858;4.472;2023-12-20T06:58:21;15.93;;;2.90;;
23714;SDS011;12036;50.858;4.472;2023-12-20T07:00:47;8.68;;;2.25;;
23714;SDS011;12036;50.858;4.472;2023-12-20T07:03:14;15.68;;;2.80;;
23714;SDS011;12036;50.858;4.472;2023-12-20T07:05:39;14.40;;;3.08;;
23714;SDS011;12036;50.858;4.472;2023-12-20T07:08:06;8.73;;;2.47;;
23714;SDS011;12036;50.858;4.472;2023-12-20T07:10:32;11.30;;;2.38;;
23714;SDS011;12036;50.858;4.472;2023-12-20T07:12:57;16.35;;;2.58;;
23714;SDS011;12036;50.858;4.472;2023-12-20T07:15:23;17.77;;;2.58;;
23714;SDS011;12036;50.858;4.472;2023-12-20T07:17:49;13.23;;;2.78;;
23714;SDS011;12036;50.858;4.472;2023-12-20T07:20:14;14.18;;;2.65;;
23714;SDS011;12036;50.858;4.472;2023-12-20T07:22:40;16.08;;;2.70;;
23714;SDS011;12036;50.858;4.472;2023-12-20T07:25:06;9.02;;;2.25;;
23714;SDS011;12036;50.858;4.472;2023-12-20T07:27:32;13.15;;;2.47;;
23714;SDS011;12036;50.858;4.472;2023-12-20T07:29:58;18.27;;;2.58;;
23714;SDS011;12036;50.858;4.472;2023-12-20T07:32:24;19.88;;;2.42;;
23714;SDS011;12036;50.858;4.472;2023-12-20T07:34:49;11.00;;;2.78;;
23714;SDS011;12036;50.858;4.472;2023-12-20T07:37:15;13.90;;;2.53;;
23714;SDS011;12036;50.858;4.472;2023-12-20T07:39:41;14.73;;;2.60;;
23714;SDS011;12036;50.858;4.472;2023-12-20T07:42:07;9.18;;;2.20;;
23714;SDS011;12036;50.858;4.472;2023-12-20T07:44:34;14.98;;;2.15;;
23714;SDS011;12036;50.858;4.472;2023-12-20T07:47:00;13.32;;;2.72;;
23714;SDS011;12036;50.858;4.472;2023-12-20T07:49:26;16.50;;;2.33;;
23714;SDS011;12036;50.858;4.472;2023-12-20T07:51:52;19.95;;;5.50;;
23714;SDS011;12036;50.858;4.472;2023-12-20T07:54:18;17.35;;;4.25;;
23714;SDS011;12036;50.858;4.472;2023-12-20T07:56:43;20.65;;;3.35;;
23714;SDS011;12036;50.858;4.472;2023-12-20T07:59:09;20.67;;;3.33;;
23714;SDS011;12036;50.858;4.472;2023-12-20T08:01:35;17.92;;;2.63;;
23714;SDS011;12036;50.858;4.472;2023-12-20T08:04:01;17.73;;;2.72;;
23714;SDS011;12036;50.858;4.472;2023-12-20T08:06:26;13.85;;;2.30;;
23714;SDS011;12036;50.858;4.472;2023-12-20T08:08:52;15.45;;;2.58;;
23714;SDS011;12036;50.858;4.472;2023-12-20T08:11:18;20.63;;;2.60;;
23714;SDS011;12036;50.858;4.472;2023-12-20T08:13:44;10.35;;;2.28;;
23714;SDS011;12036;50.858;4.472;2023-12-20T08:16:10;13.63;;;3.15;;
23714;SDS011;12036;50.858;4.472;2023-12-20T08:18:38;15.90;;;2.10;;
23714;SDS011;12036;50.858;4.472;2023-12-20T08:21:04;16.20;;;2.72;;
23714;SDS011;12036;50.858;4.472;2023-12-20T08:23:32;15.52;;;2.67;;
23714;SDS011;12036;50.858;4.472;2023-12-20T08:25:58;19.92;;;3.38;;
23714;SDS011;12036;50.858;4.472;2023-12-20T08:28:24;14.68;;;2.83;;
23714;SDS011;12036;50.858;4.472;2023-12-20T08:30:49;15.13;;;2.25;;
23714;SDS011;12036;50.858;4.472;2023-12-20T08:33:18;13.57;;;2.75;;
23714;SDS011;12036;50.858;4.472;2023-12-20T08:35:44;19.83;;;2.67;;
23714;SDS011;12036;50.858;4.472;2023-12-20T08:38:09;9.90;;;2.10;;
23714;SDS011;12036;50.858;4.472;2023-12-20T08:40:35;6.63;;;2.47;;
23714;SDS011;12036;50.858;4.472;2023-12-20T08:43:01;10.52;;;2.65;;
23714;SDS011;12036;50.858;4.472;2023-12-20T08:45:27;19.40;;;2.53;;
23714;SDS011;12036;50.858;4.472;2023-12-20T08:47:52;19.40;;;2.50;;
23714;SDS011;12036;50.858;4.472;2023-12-20T08:50:18;13.15;;;2.35;;
23714;SDS011;12036;50.858;4.472;2023-12-20T08:52:43;17.52;;;3.05;;
23714;SDS011;12036;50.858;4.472;2023-12-20T08:55:09;9.32;;;2.40;;
23714;SDS011;12036;50.858;4.472;2023-12-20T08:57:35;10.73;;;2.15;;
23714;SDS011;12036;50.858;4.472;2023-12-20T09:00:01;16.55;;;2.75;;
23714;SDS011;12036;50.858;4.472;2023-12-20T09:02:28;10.38;;;2.22;;
23714;SDS011;12036;50.858;4.472;2023-12-20T09:04:54;14.82;;;2.55;;
23714;SDS011;12036;50.858;4.472;2023-12-20T09:07:26;17.05;;;2.60;;
23714;SDS011;12036;50.858;4.472;2023-12-20T09:09:55;17.58;;;2.22;;
23714;SDS011;12036;50.858;4.472;2023-12-20T09:12:21;15.07;;;2.17;;
23714;SDS011;12036;50.858;4.472;2023-12-20T09:14:48;11.10;;;2.50;;
23714;SDS011;12036;50.858;4.472;2023-12-20T09:17:15;15.88;;;3.55;;
23714;SDS011;12036;50.858;4.472;2023-12-20T09:19:41;15.98;;;2.65;;
23714;SDS011;12036;50.858;4.472;2023-12-20T09:22:09;15.65;;;2.30;;
23714;SDS011;12036;50.858;4.472;2023-12-20T09:24:35;13.05;;;2.80;;
23714;SDS011;12036;50.858;4.472;2023-12-20T09:27:01;12.02;;;2.38;;
23714;SDS011;12036;50.858;4.472;2023-12-20T09:29:27;12.90;;;2.83;;
23714;SDS011;12036;50.858;4.472;2023-12-20T09:31:53;16.88;;;2.75;;
23714;SDS011;12036;50.858;4.472;2023-12-20T09:34:19;12.77;;;2.20;;
23714;SDS011;12036;50.858;4.472;2023-12-20T09:36:44;15.55;;;2.88;;
23714;SDS011;12036;50.858;4.472;2023-12-20T09:39:16;12.50;;;2.10;;
23714;SDS011;12036;50.858;4.472;2023-12-20T09:41:44;16.77;;;2.67;;
23714;SDS011;12036;50.858;4.472;2023-12-20T09:44:13;18.25;;;2.80;;
23714;SDS011;12036;50.858;4.472;2023-12-20T09:46:42;18.95;;;2.60;;
23714;SDS011;12036;50.858;4.472;2023-12-20T09:49:10;10.82;;;2.30;;
23714;SDS011;12036;50.858;4.472;2023-12-20T09:51:36;11.20;;;2.70;;
23714;SDS011;12036;50.858;4.472;2023-12-20T09:54:05;11.98;;;2.72;;
23714;SDS011;12036;50.858;4.472;2023-12-20T09:56:30;16.35;;;2.45;;
23714;SDS011;12036;50.858;4.472;2023-12-20T09:58:56;17.27;;;2.70;;
23714;SDS011;12036;50.858;4.472;2023-12-20T10:01:23;15.68;;;2.10;;
23714;SDS011;12036;50.858;4.472;2023-12-20T10:03:50;10.52;;;2.58;;
23714;SDS011;12036;50.858;4.472;2023-12-20T10:06:16;23.45;;;2.83;;
23714;SDS011;12036;50.858;4.472;2023-12-20T10:08:42;14.38;;;2.50;;
23714;SDS011;12036;50.858;4.472;2023-12-20T10:11:08;17.10;;;2.53;;
23714;SDS011;12036;50.858;4.472;2023-12-20T10:13:34;12.63;;;2.72;;
23714;SDS011;12036;50.858;4.472;2023-12-20T10:16:05;10.13;;;2.35;;
23714;SDS011;12036;50.858;4.472;2023-12-20T10:18:32;10.50;;;2.83;;
23714;SDS011;12036;50.858;4.472;2023-12-20T10:20:58;12.95;;;2.10;;
23714;SDS011;12036;50.858;4.472;2023-12-20T10:23:25;12.80;;;2.70;;
23714;SDS011;12036;50.858;4.472;2023-12-20T10:26:00;9.43;;;2.33;;
23714;SDS011;12036;50.858;4.472;2023-12-20T10:28:26;16.40;;;2.75;;
23714;SDS011;12036;50.858;4.472;2023-12-20T10:30:54;18.58;;;2.85;;
23714;SDS011;12036;50.858;4.472;2023-12-20T10:33:26;9.10;;;2.25;;
23714;SDS011;12036;50.858;4.472;2023-12-20T10:35:57;13.85;;;2.42;;
23714;SDS011;12036;50.858;4.472;2023-12-20T10:38:23;19.75;;;2.85;;
23714;SDS011;12036;50.858;4.472;2023-12-20T10:40:49;16.42;;;2.90;;
23714;SDS011;12036;50.858;4.472;2023-12-20T10:43:22;12.38;;;2.08;;
23714;SDS011;12036;50.858;4.472;2023-12-20T10:45:51;7.15;;;1.92;;
23714;SDS011;12036;50.858;4.472;2023-12-20T10:48:17;9.48;;;2.30;;
23714;SDS011;12036;50.858;4.472;2023-12-20T10:50:43;15.73;;;2.80;;
23714;SDS011;12036;50.858;4.472;2023-12-20T10:53:10;12.18;;;2.22;;
23714;SDS011;12036;50.858;4.472;2023-12-20T10:55:37;13.38;;;2.60;;
23714;SDS011;12036;50.858;4.472;2023-12-20T10:58:08;17.65;;;2.88;;
23714;SDS011;12036;50.858;4.472;2023-12-20T11:00:36;13.57;;;2.35;;
23714;SDS011;12036;50.858;4.472;2023-12-20T11:03:06;14.20;;;2.58;;
23714;SDS011;12036;50.858;4.472;2023-12-20T11:05:41;14.35;;;2.72;;
23714;SDS011;12036;50.858;4.472;2023-12-20T11:08:20;15.90;;;2.30;;
23714;SDS011;12036;50.858;4.472;2023-12-20T11:10:49;10.18;;;2.00;;
23714;SDS011;12036;50.858;4.472;2023-12-20T11:16:27;15.25;;;2.83;;
23714;SDS011;12036;50.858;4.472;2023-12-20T11:18:52;9.88;;;2.20;;
23714;SDS011;12036;50.858;4.472;2023-12-20T11:21:18;17.23;;;2.95;;
23714;SDS011;12036;50.858;4.472;2023-12-20T11:23:44;11.02;;;2.38;;
23714;SDS011;12036;50.858;4.472;2023-12-20T11:26:10;11.85;;;2.13;;
23714;SDS011;12036;50.858;4.472;2023-12-20T11:28:36;10.27;;;2.00;;
23714;SDS011;12036;50.858;4.472;2023-12-20T11:31:02;17.50;;;2.17;;
23714;SDS011;12036;50.858;4.472;2023-12-20T11:36:00;11.88;;;2.20;;
23714;SDS011;12036;50.858;4.472;2023-12-20T11:38:27;18.70;;;2.53;;
23714;SDS011;12036;50.858;4.472;2023-12-20T11:41:00;10.57;;;2.85;;
23714;SDS011;12036;50.858;4.472;2023-12-20T11:46:03;11.50;;;2.63;;
23714;SDS011;12036;50.858;4.472;2023-12-20T11:48:30;17.83;;;2.72;;
23714;SDS011;12036;50.858;4.472;2023-12-20T11:50:57;19.20;;;3.45;;
23714;SDS011;12036;50.858;4.472;2023-12-20T11:53:23;21.55;;;3.20;;
23714;SDS011;12036;50.858;4.472;2023-12-20T11:55:49;19.73;;;2.58;;
23714;SDS011;12036;50.858;4.472;2023-12-20T11:58:14;12.98;;;3.05;;
23714;SDS011;12036;50.858;4.472;2023-12-20T12:00:41;11.65;;;2.75;;
23714;SDS011;12036;50.858;4.472;2023-12-20T12:03:08;12.98;;;3.22;;
23714;SDS011;12036;50.858;4.472;2023-12-20T12:05:34;17.77;;;2.65;;
23714;SDS011;12036;50.858;4.472;2023-12-20T12:08:01;17.25;;;2.92;;
23714;SDS011;12036;50.858;4.472;2023-12-20T12:10:27;10.73;;;2.22;;
23714;SDS011;12036;50.858;4.472;2023-12-20T12:12:53;15.00;;;2.90;;
23714;SDS011;12036;50.858;4.472;2023-12-20T12:15:19;18.02;;;2.83;;
23714;SDS011;12036;50.858;4.472;2023-12-20T12:17:52;16.00;;;3.15;;
23714;SDS011;12036;50.858;4.472;2023-12-20T12:20:19;17.42;;;3.17;;
23714;SDS011;12036;50.858;4.472;2023-12-20T12:22:45;8.45;;;2.33;;
23714;SDS011;12036;50.858;4.472;2023-12-20T12:25:15;15.93;;;2.45;;
23714;SDS011;12036;50.858;4.472;2023-12-20T12:27:41;11.45;;;2.38;;
23714;SDS011;12036;50.858;4.472;2023-12-20T12:30:08;14.68;;;2.40;;
23714;SDS011;12036;50.858;4.472;2023-12-20T12:32:34;18.05;;;2.40;;
23714;SDS011;12036;50.858;4.472;2023-12-20T12:35:04;17.60;;;2.60;;
23714;SDS011;12036;50.858;4.472;2023-12-20T12:37:31;19.02;;;2.80;;
23714;SDS011;12036;50.858;4.472;2023-12-20T12:39:59;13.25;;;2.90;;
23714;SDS011;12036;50.858;4.472;2023-12-20T12:42:24;26.48;;;2.70;;
23714;SDS011;12036;50.858;4.472;2023-12-20T12:44:53;15.85;;;2.55;;
23714;SDS011;12036;50.858;4.472;2023-12-20T12:47:20;14.20;;;2.40;;
23714;SDS011;12036;50.858;4.472;2023-12-20T12:49:45;13.48;;;3.20;;
23714;SDS011;12036;50.858;4.472;2023-12-20T12:52:11;10.38;;;3.08;;
23714;SDS011;12036;50.858;4.472;2023-12-20T12:54:37;12.52;;;2.55;;
23714;SDS011;12036;50.858;4.472;2023-12-20T12:57:02;19.13;;;3.05;;
23714;SDS011;12036;50.858;4.472;2023-12-20T12:59:28;16.30;;;2.50;;
23714;SDS011;12036;50.858;4.472;2023-12-20T13:01:54;16.52;;;2.50;;
23714;SDS011;12036;50.858;4.472;2023-12-20T13:04:19;14.65;;;2.63;;
23714;SDS011;12036;50.858;4.472;2023-12-20T13:06:45;18.13;;;2.65;;
23714;SDS011;12036;50.858;4.472;2023-12-20T13:09:12;11.05;;;2.65;;
23714;SDS011;12036;50.858;4.472;2023-12-20T13:11:37;18.23;;;2.90;;
23714;SDS011;12036;50.858;4.472;2023-12-20T13:14:03;14.32;;;2.72;;
23714;SDS011;12036;50.858;4.472;2023-12-20T13:16:29;18.80;;;2.67;;
23714;SDS011;12036;50.858;4.472;2023-12-20T13:18:55;14.32;;;2.55;;
23714;SDS011;12036;50.858;4.472;2023-12-20T13:21:21;12.15;;;2.38;;
23714;SDS011;12036;50.858;4.472;2023-12-20T13:23:46;13.35;;;2.85;;
23714;SDS011;12036;50.858;4.472;2023-12-20T13:26:12;15.95;;;2.53;;
23714;SDS011;12036;50.858;4.472;2023-12-20T13:28:38;11.13;;;2.60;;
23714;SDS011;12036;50.858;4.472;2023-12-20T13:31:03;17.35;;;2.75;;
23714;SDS011;12036;50.858;4.472;2023-12-20T13:33:29;15.48;;;2.45;;
23714;SDS011;12036;50.858;4.472;2023-12-20T13:35:55;16.73;;;2.33;;
23714;SDS011;12036;50.858;4.472;2023-12-20T13:38:21;15.15;;;2.97;;
23714;SDS011;12036;50.858;4.472;2023-12-20T13:40:47;15.95;;;2.67;;
23714;SDS011;12036;50.858;4.472;2023-12-20T13:43:13;16.17;;;3.03;;
23714;SDS011;12036;50.858;4.472;2023-12-20T13:45:39;11.25;;;2.30;;
23714;SDS011;12036;50.858;4.472;2023-12-20T13:48:04;15.65;;;2.78;;
23714;SDS011;12036;50.858;4.472;2023-12-20T13:50:31;12.60;;;2.55;;
23714;SDS011;12036;50.858;4.472;2023-12-20T13:52:56;16.45;;;3.00;;
23714;SDS011;12036;50.858;4.472;2023-12-20T13:55:22;13.93;;;2.90;;
23714;SDS011;12036;50.858;4.472;2023-12-20T13:57:50;17.52;;;2.42;;
23714;SDS011;12036;50.858;4.472;2023-12-20T14:00:16;14.13;;;2.67;;
23714;SDS011;12036;50.858;4.472;2023-12-20T14:02:42;12.18;;;2.40;;
23714;SDS011;12036;50.858;4.472;2023-12-20T14:05:08;13.13;;;2.30;;
23714;SDS011;12036;50.858;4.472;2023-12-20T14:07:35;12.18;;;2.03;;
23714;SDS011;12036;50.858;4.472;2023-12-20T14:10:01;15.00;;;2.38;;
23714;SDS011;12036;50.858;4.472;2023-12-20T14:12:26;11.43;;;2.45;;
23714;SDS011;12036;50.858;4.472;2023-12-20T14:14:52;21.33;;;2.58;;
23714;SDS011;12036;50.858;4.472;2023-12-20T14:17:20;11.90;;;2.30;;
23714;SDS011;12036;50.858;4.472;2023-12-20T14:19:45;13.45;;;2.03;;
23714;SDS011;12036;50.858;4.472;2023-12-20T14:22:11;8.02;;;2.10;;
23714;SDS011;12036;50.858;4.472;2023-12-20T14:24:36;15.05;;;2.97;;
23714;SDS011;12036;50.858;4.472;2023-12-20T14:27:02;17.77;;;2.53;;
23714;SDS011;12036;50.858;4.472;2023-12-20T14:29:28;13.52;;;2.53;;
23714;SDS011;12036;50.858;4.472;2023-12-20T14:31:53;12.60;;;2.25;;
23714;SDS011;12036;50.858;4.472;2023-12-20T14:34:19;18.83;;;2.35;;
23714;SDS011;12036;50.858;4.472;2023-12-20T14:36:44;18.85;;;2.55;;